Time;durP1;ratioP1;P1;durP2;ratioP2;P2;SDS_P1;SDS_P2;PMS_P1;PMS_P2;Temp;Humidity;BMP_temperature;BMP_pressure;BME280_temperature;BME280_humidity;BME280_pressure;Samples;Min_cycle;Max_cycle;Signal;HPM_P1;HPM_P2
2023/01/25 00:01:18;;;;;;;1.30;1.20;;;;;;;;;;5032073;28;20056;-69
2023/01/25 00:03:46;;;;;;;1.15;0.75;;;;;;;;;;5030929;28;20052;-66
2023/01/25 00:06:15;;;;;;;1.17;1.10;;;;;;;;;;5032169;28;20049;-65
2023/01/25 00:08:43;;;;;;;1.23;0.98;;;;;;;;;;5031475;28;20061;-66
2023/01/25 00:11:15;;;;;;;2.65;1.35;;;;;;;;;;5038649;28;20048;-72
2023/01/25 00:13:43;;;;;;;1.85;1.48;;;;;;;;;;5033613;28;20509;-66
2023/01/25 00:16:11;;;;;;;4.50;1.77;;;;;;;;;;5044799;28;20045;-66
2023/01/25 00:18:40;;;;;;;0.70;0.70;;;;;;;;;;5035661;28;20124;-67
2023/01/25 00:21:14;;;;;;;2.72;2.47;;;;;;;;;;5022074;28;20054;-72
2023/01/25 00:23:42;;;;;;;;;;;;;;;;;;5031746;28;20124;-66
2023/01/25 00:26:12;;;;;;;0.20;0.20;;;;;;;;;;5031736;28;19924;-68
2023/01/25 00:28:40;;;;;;;4.53;1.17;;;;;;;;;;5038646;28;20446;-66
2023/01/25 00:31:11;;;;;;;0.40;0.40;;;;;;;;;;5032746;28;20057;-66
2023/01/25 00:33:50;;;;;;;2.58;1.77;;;;;;;;;;5031078;28;20052;-68
2023/01/25 00:36:29;;;;;;;1.23;1.15;;;;;;;;;;5026221;28;20398;-67
2023/01/25 00:38:58;;;;;;;0.45;0.45;;;;;;;;;;5028266;28;20041;-66
2023/01/25 00:41:27;;;;;;;0.50;0.50;;;;;;;;;;5021574;28;20441;-66
2023/01/25 00:43:56;;;;;;;1.52;1.00;;;;;;;;;;5026131;28;20488;-67
2023/01/25 00:46:24;;;;;;;1.10;1.10;;;;;;;;;;5026443;28;20057;-66
2023/01/25 00:48:54;;;;;;;7.55;1.40;;;;;;;;;;5032514;28;20049;-67
2023/01/25 00:51:22;;;;;;;0.57;0.57;;;;;;;;;;5029743;28;20042;-67
2023/01/25 00:53:51;;;;;;;0.50;0.50;;;;;;;;;;5030821;28;20060;-66
2023/01/25 00:56:19;;;;;;;1.50;1.40;;;;;;;;;;5032751;28;20046;-67
2023/01/25 00:58:49;;;;;;;0.45;0.45;;;;;;;;;;5030737;28;20387;-66
2023/01/25 01:01:17;;;;;;;0.95;0.63;;;;;;;;;;5028836;28;20045;-66
2023/01/25 01:03:45;;;;;;;1.02;0.98;;;;;;;;;;5029654;28;20108;-66
2023/01/25 01:06:14;;;;;;;1.42;0.73;;;;;;;;;;5029182;28;20048;-66
2023/01/25 01:08:43;;;;;;;3.72;0.70;;;;;;;;;;5031967;28;20414;-67
2023/01/25 01:11:12;;;;;;;1.85;0.77;;;;;;;;;;5032246;28;20046;-66
2023/01/25 01:13:41;;;;;;;0.90;0.88;;;;;;;;;;5034379;28;20049;-66
2023/01/25 01:16:12;;;;;;;8.50;0.82;;;;;;;;;;5028863;28;20053;-66
2023/01/25 01:18:41;;;;;;;1.45;1.13;;;;;;;;;;5030671;28;20065;-67
2023/01/25 01:21:10;;;;;;;1.08;1.08;;;;;;;;;;5034538;28;20056;-68
2023/01/25 01:23:38;;;;;;;2.70;2.03;;;;;;;;;;5030716;28;20057;-69
2023/01/25 01:26:08;;;;;;;3.53;1.60;;;;;;;;;;5033485;28;21573;-65
2023/01/25 01:28:38;;;;;;;0.50;0.50;;;;;;;;;;5031764;28;20129;-66
2023/01/25 01:31:08;;;;;;;1.95;1.85;;;;;;;;;;5029234;28;20129;-66
2023/01/25 01:33:37;;;;;;;0.88;0.80;;;;;;;;;;5028732;28;20080;-75
2023/01/25 01:36:07;;;;;;;2.22;2.03;;;;;;;;;;5028544;28;20045;-66
2023/01/25 01:38:35;;;;;;;1.88;1.58;;;;;;;;;;5031488;28;20041;-67
2023/01/25 01:41:04;;;;;;;5.97;2.35;;;;;;;;;;5029077;28;20049;-68
2023/01/25 01:43:32;;;;;;;0.40;0.40;;;;;;;;;;5031048;28;20056;-66
2023/01/25 01:46:01;;;;;;;2.30;2.20;;;;;;;;;;5035112;28;20439;-66
2023/01/25 01:48:33;;;;;;;4.07;0.30;;;;;;;;;;5049366;28;20497;-66
2023/01/25 01:51:04;;;;;;;1.67;0.68;;;;;;;;;;5053074;28;20045;-66
2023/01/25 01:53:33;;;;;;;3.90;1.20;;;;;;;;;;5060383;28;20052;-67
2023/01/25 01:56:03;;;;;;;0.43;0.43;;;;;;;;;;5048729;28;20064;-66
2023/01/25 01:58:31;;;;;;;1.58;0.70;;;;;;;;;;5054829;28;20049;-66
2023/01/25 02:01:00;;;;;;;0.57;0.57;;;;;;;;;;5049487;28;20041;-66
2023/01/25 02:03:28;;;;;;;1.55;0.98;;;;;;;;;;5049556;28;20558;-67
2023/01/25 02:05:58;;;;;;;1.65;0.70;;;;;;;;;;5053454;28;20049;-66
2023/01/25 02:08:29;;;;;;;0.85;0.85;;;;;;;;;;5046388;28;20143;-66
2023/01/25 02:10:58;;;;;;;0.77;0.77;;;;;;;;;;5052678;28;20412;-66
2023/01/25 02:13:26;;;;;;;1.67;1.55;;;;;;;;;;5046175;28;20072;-66
2023/01/25 02:15:56;;;;;;;1.08;1.05;;;;;;;;;;5052637;28;20044;-66
2023/01/25 02:18:25;;;;;;;1.50;0.65;;;;;;;;;;5063378;28;20052;-66
2023/01/25 02:20:54;;;;;;;2.28;1.20;;;;;;;;;;5051582;28;20409;-66
2023/01/25 02:23:27;;;;;;;0.43;0.43;;;;;;;;;;5069571;28;20053;-69
2023/01/25 02:25:57;;;;;;;2.47;0.80;;;;;;;;;;5052128;28;20067;-69
2023/01/25 02:28:27;;;;;;;0.47;0.47;;;;;;;;;;5046769;28;20063;-76
2023/01/25 02:30:55;;;;;;;1.40;0.75;;;;;;;;;;5049343;28;20455;-67
2023/01/25 02:33:24;;;;;;;0.35;0.30;;;;;;;;;;5061557;28;20094;-66
2023/01/25 02:35:55;;;;;;;0.35;0.35;;;;;;;;;;5061718;28;20052;-66
2023/01/25 02:38:23;;;;;;;1.08;1.00;;;;;;;;;;5052530;28;20067;-66
2023/01/25 02:40:54;;;;;;;1.85;0.57;;;;;;;;;;5037854;28;20042;-66
2023/01/25 02:43:24;;;;;;;0.38;0.38;;;;;;;;;;5032823;28;20045;-66
2023/01/25 02:45:55;;;;;;;0.20;0.20;;;;;;;;;;5038710;28;20064;-70
2023/01/25 02:48:24;;;;;;;1.35;1.25;;;;;;;;;;5047159;28;20136;-66
2023/01/25 02:50:52;;;;;;;5.47;2.33;;;;;;;;;;5059603;28;20049;-66
2023/01/25 02:53:20;;;;;;;1.77;1.65;;;;;;;;;;5057687;28;20060;-66
2023/01/25 02:55:48;;;;;;;1.60;1.27;;;;;;;;;;5062741;28;20485;-67
2023/01/25 02:58:17;;;;;;;0.40;0.40;;;;;;;;;;5057461;28;20053;-67
2023/01/25 03:00:46;;;;;;;2.10;1.20;;;;;;;;;;5049201;28;20515;-65
2023/01/25 03:03:14;;;;;;;4.03;0.77;;;;;;;;;;5048893;28;20049;-66
2023/01/25 03:05:44;;;;;;;1.73;1.63;;;;;;;;;;5052553;28;20071;-68
2023/01/25 03:08:12;;;;;;;0.38;0.35;;;;;;;;;;5052459;28;20053;-66
2023/01/25 03:10:40;;;;;;;0.60;0.60;;;;;;;;;;5055822;28;20045;-67
2023/01/25 03:13:10;;;;;;;0.77;0.77;;;;;;;;;;5056494;28;20061;-66
2023/01/25 03:15:38;;;;;;;0.30;0.30;;;;;;;;;;5055536;28;20055;-66
2023/01/25 03:18:07;;;;;;;0.95;0.95;;;;;;;;;;5061989;28;20057;-66
2023/01/25 03:20:36;;;;;;;2.20;1.70;;;;;;;;;;5051359;28;20056;-66
2023/01/25 03:23:04;;;;;;;0.88;0.80;;;;;;;;;;5056066;28;20045;-66
2023/01/25 03:25:32;;;;;;;0.60;0.60;;;;;;;;;;5056605;28;20045;-66
2023/01/25 03:28:00;;;;;;;0.30;0.30;;;;;;;;;;5060842;28;20060;-66
2023/01/25 03:30:29;;;;;;;3.67;1.23;;;;;;;;;;5060363;28;20048;-66
2023/01/25 03:32:57;;;;;;;1.48;1.05;;;;;;;;;;5061222;28;20382;-66
2023/01/25 03:35:26;;;;;;;1.73;1.63;;;;;;;;;;5052048;28;20061;-67
2023/01/25 03:37:55;;;;;;;0.75;0.75;;;;;;;;;;5054520;28;20163;-70
2023/01/25 03:40:23;;;;;;;0.57;0.57;;;;;;;;;;5054475;28;20044;-69
2023/01/25 03:42:52;;;;;;;0.70;0.70;;;;;;;;;;5055778;28;20052;-68
2023/01/25 03:45:20;;;;;;;1.70;1.23;;;;;;;;;;5061007;28;20056;-66
2023/01/25 03:47:48;;;;;;;1.00;1.00;;;;;;;;;;5066028;28;20055;-67
2023/01/25 03:50:17;;;;;;;0.63;0.63;;;;;;;;;;5056325;28;20056;-66
2023/01/25 03:52:49;;;;;;;1.15;1.15;;;;;;;;;;5065561;28;20052;-67
2023/01/25 03:55:17;;;;;;;1.65;0.90;;;;;;;;;;5051940;28;20049;-65
2023/01/25 03:57:47;;;;;;;1.73;1.42;;;;;;;;;;5066918;28;20485;-66
2023/01/25 04:00:16;;;;;;;4.63;1.10;;;;;;;;;;5057500;28;20424;-69
2023/01/25 04:02:44;;;;;;;4.15;1.05;;;;;;;;;;5055080;28;20041;-66
2023/01/25 04:05:13;;;;;;;0.75;0.75;;;;;;;;;;5050082;28;20049;-66
2023/01/25 04:07:41;;;;;;;0.70;0.70;;;;;;;;;;5066256;28;20044;-67
2023/01/25 04:10:11;;;;;;;2.95;2.10;;;;;;;;;;5056678;28;20485;-67
2023/01/25 04:12:40;;;;;;;1.48;1.38;;;;;;;;;;5045668;28;20052;-68
2023/01/25 04:15:09;;;;;;;1.35;0.77;;;;;;;;;;5058265;28;20041;-68
2023/01/25 04:17:37;;;;;;;3.53;1.67;;;;;;;;;;5053364;28;20060;-65
2023/01/25 04:20:06;;;;;;;3.75;1.75;;;;;;;;;;5048329;28;20078;-68
2023/01/25 04:22:34;;;;;;;4.28;0.88;;;;;;;;;;5046419;28;20063;-69
2023/01/25 04:25:03;;;;;;;1.50;1.20;;;;;;;;;;5046379;28;20056;-66
2023/01/25 04:27:32;;;;;;;0.98;0.70;;;;;;;;;;5048629;28;20041;-66
2023/01/25 04:30:01;;;;;;;0.60;0.60;;;;;;;;;;5056449;28;20053;-66
2023/01/25 04:32:29;;;;;;;0.82;0.82;;;;;;;;;;5055252;28;20501;-66
2023/01/25 04:34:58;;;;;;;1.27;0.40;;;;;;;;;;5048880;28;20053;-65
2023/01/25 04:37:26;;;;;;;0.68;0.68;;;;;;;;;;5049279;28;20056;-66
2023/01/25 04:39:54;;;;;;;0.85;0.60;;;;;;;;;;5061047;28;20053;-68
2023/01/25 04:42:22;;;;;;;0.57;0.57;;;;;;;;;;5054785;28;20047;-66
2023/01/25 04:44:52;;;;;;;0.43;0.43;;;;;;;;;;5063487;28;20060;-65
2023/01/25 04:47:20;;;;;;;2.70;1.75;;;;;;;;;;5058126;28;20060;-66
2023/01/25 04:49:48;;;;;;;0.30;0.30;;;;;;;;;;5051914;28;20053;-67
2023/01/25 04:52:17;;;;;;;0.93;0.93;;;;;;;;;;5053827;28;20056;-66
2023/01/25 04:54:45;;;;;;;1.33;1.23;;;;;;;;;;5057049;28;20059;-66
2023/01/25 04:57:13;;;;;;;0.40;0.40;;;;;;;;;;5055977;28;20045;-67
2023/01/25 04:59:41;;;;;;;0.40;0.40;;;;;;;;;;5055347;28;20045;-66
2023/01/25 05:02:11;;;;;;;1.77;1.38;;;;;;;;;;5049610;28;20045;-66
2023/01/25 05:04:39;;;;;;;1.67;1.58;;;;;;;;;;5059536;28;20048;-67
2023/01/25 05:07:08;;;;;;;0.20;0.20;;;;;;;;;;5044166;28;20044;-75
2023/01/25 05:09:36;;;;;;;0.40;0.40;;;;;;;;;;5059548;28;20060;-72
2023/01/25 05:12:10;;;;;;;1.17;1.17;;;;;;;;;;5050569;28;20063;-66
2023/01/25 05:14:38;;;;;;;1.27;0.95;;;;;;;;;;5061502;28;20587;-66
2023/01/25 05:17:07;;;;;;;2.00;1.55;;;;;;;;;;5046757;28;20059;-72
2023/01/25 05:19:36;;;;;;;1.15;1.08;;;;;;;;;;5044956;28;20053;-69
2023/01/25 05:22:06;;;;;;;0.20;0.20;;;;;;;;;;5050162;28;20049;-69
2023/01/25 05:24:36;;;;;;;1.85;0.85;;;;;;;;;;5052376;28;20056;-69
2023/01/25 05:27:03;;;;;;;0.40;0.40;;;;;;;;;;5057330;28;20052;-74
2023/01/25 05:29:34;;;;;;;0.65;0.30;;;;;;;;;;5042481;28;20410;-65
2023/01/25 05:32:03;;;;;;;0.63;0.63;;;;;;;;;;5028949;28;20045;-66
2023/01/25 05:34:31;;;;;;;1.98;1.08;;;;;;;;;;5031256;28;20528;-65
2023/01/25 05:37:01;;;;;;;0.80;0.73;;;;;;;;;;5021140;28;20053;-66
2023/01/25 05:39:29;;;;;;;3.30;0.80;;;;;;;;;;5036588;28;20048;-69
2023/01/25 05:41:57;;;;;;;0.40;0.40;;;;;;;;;;5027941;28;20052;-68
2023/01/25 05:44:26;;;;;;;1.73;1.48;;;;;;;;;;5030147;28;20049;-78
2023/01/25 05:46:54;;;;;;;0.55;0.55;;;;;;;;;;5024584;28;20050;-66
2023/01/25 05:49:23;;;;;;;3.92;0.88;;;;;;;;;;5026845;28;20049;-67
2023/01/25 05:51:51;;;;;;;3.22;0.55;;;;;;;;;;5028667;28;20422;-66
2023/01/25 05:54:20;;;;;;;0.55;0.55;;;;;;;;;;5025752;28;20045;-65
2023/01/25 05:56:49;;;;;;;1.38;0.90;;;;;;;;;;5030380;28;20084;-66
2023/01/25 05:59:18;;;;;;;2.78;0.88;;;;;;;;;;5028767;28;20513;-66
2023/01/25 06:01:46;;;;;;;3.25;0.73;;;;;;;;;;5026351;28;20046;-66
2023/01/25 06:04:15;;;;;;;0.65;0.65;;;;;;;;;;5026014;28;20049;-66
2023/01/25 06:06:43;;;;;;;0.20;0.20;;;;;;;;;;5033640;28;20050;-66
2023/01/25 06:09:12;;;;;;;1.45;1.35;;;;;;;;;;5027346;28;20041;-66
2023/01/25 06:11:43;;;;;;;1.40;1.27;;;;;;;;;;5031477;28;20037;-68
2023/01/25 06:14:12;;;;;;;0.20;0.20;;;;;;;;;;5033359;28;20570;-67
2023/01/25 06:16:40;;;;;;;0.32;0.32;;;;;;;;;;5028168;28;20045;-66
2023/01/25 06:19:08;;;;;;;1.17;1.15;;;;;;;;;;5023757;28;20053;-66
2023/01/25 06:21:37;;;;;;;1.00;0.70;;;;;;;;;;5030972;28;20052;-66
2023/01/25 06:24:06;;;;;;;0.75;0.75;;;;;;;;;;5034175;28;20053;-69
2023/01/25 06:26:34;;;;;;;1.13;1.05;;;;;;;;;;5034263;28;20091;-66
2023/01/25 06:29:05;;;;;;;0.60;0.60;;;;;;;;;;5032361;28;20057;-66
2023/01/25 06:31:33;;;;;;;1.77;1.45;;;;;;;;;;5035671;28;20327;-69
2023/01/25 06:34:05;;;;;;;0.20;0.20;;;;;;;;;;5028963;28;20446;-65
2023/01/25 06:36:33;;;;;;;0.57;0.57;;;;;;;;;;5034503;28;20124;-65
2023/01/25 06:39:01;;;;;;;2.60;0.60;;;;;;;;;;5048321;28;20045;-66
2023/01/25 06:41:30;;;;;;;0.32;0.32;;;;;;;;;;5054820;28;20052;-65
2023/01/25 06:43:58;;;;;;;0.40;0.40;;;;;;;;;;5054707;28;20409;-65
2023/01/25 06:46:27;;;;;;;0.60;0.60;;;;;;;;;;5055730;28;20049;-66
2023/01/25 06:48:56;;;;;;;0.25;0.25;;;;;;;;;;5053849;28;20044;-69
2023/01/25 06:51:24;;;;;;;0.60;0.60;;;;;;;;;;5052957;28;20052;-65
2023/01/25 06:53:52;;;;;;;1.13;0.88;;;;;;;;;;5054763;28;20473;-68
2023/01/25 06:56:21;;;;;;;1.85;0.70;;;;;;;;;;5049434;28;20041;-65
2023/01/25 06:58:50;;;;;;;2.67;1.48;;;;;;;;;;5059233;28;20052;-66
2023/01/25 07:01:19;;;;;;;1.23;1.13;;;;;;;;;;5052678;28;20515;-72
2023/01/25 07:03:53;;;;;;;0.20;0.20;;;;;;;;;;5053881;28;20067;-66
2023/01/25 07:06:22;;;;;;;2.45;0.80;;;;;;;;;;5055715;28;20049;-66
2023/01/25 07:08:50;;;;;;;0.60;0.60;;;;;;;;;;5052572;28;20053;-66
2023/01/25 07:11:19;;;;;;;1.77;1.02;;;;;;;;;;5051426;28;20488;-69
2023/01/25 07:13:47;;;;;;;0.68;0.68;;;;;;;;;;5058504;28;20053;-66
2023/01/25 07:16:17;;;;;;;1.42;0.60;;;;;;;;;;5045000;28;20337;-65
2023/01/25 07:18:45;;;;;;;0.65;0.65;;;;;;;;;;5059084;28;20048;-66
2023/01/25 07:21:15;;;;;;;0.30;0.30;;;;;;;;;;5045824;28;20135;-68
2023/01/25 07:23:44;;;;;;;0.95;0.90;;;;;;;;;;5057179;28;20041;-75
2023/01/25 07:26:16;;;;;;;0.77;0.77;;;;;;;;;;5055176;28;20049;-68
2023/01/25 07:28:44;;;;;;;0.20;0.20;;;;;;;;;;5055994;28;20045;-65
2023/01/25 07:31:13;;;;;;;0.47;0.47;;;;;;;;;;5051510;28;20095;-74
2023/01/25 07:33:42;;;;;;;1.30;1.20;;;;;;;;;;5054922;28;20060;-66
2023/01/25 07:36:11;;;;;;;2.05;1.25;;;;;;;;;;5052266;28;20482;-65
2023/01/25 07:38:40;;;;;;;0.20;0.20;;;;;;;;;;5052163;28;20045;-66
2023/01/25 07:41:09;;;;;;;0.22;0.22;;;;;;;;;;5053418;28;20524;-65
2023/01/25 07:43:37;;;;;;;1.10;1.10;;;;;;;;;;5052275;28;20049;-65
2023/01/25 07:46:07;;;;;;;3.85;0.52;;;;;;;;;;5053350;28;20075;-66
2023/01/25 07:48:35;;;;;;;0.63;0.63;;;;;;;;;;5041404;28;20041;-67
2023/01/25 07:51:11;;;;;;;1.70;1.05;;;;;;;;;;5031927;28;20046;-65
2023/01/25 07:53:41;;;;;;;0.85;0.85;;;;;;;;;;5047766;28;20053;-66
2023/01/25 07:56:10;;;;;;;0.25;0.25;;;;;;;;;;5042654;28;20076;-66
2023/01/25 07:58:38;;;;;;;0.30;0.30;;;;;;;;;;5057779;28;20509;-66
2023/01/25 08:01:07;;;;;;;1.00;0.68;;;;;;;;;;5069815;28;20056;-68
2023/01/25 08:03:35;;;;;;;2.08;1.60;;;;;;;;;;5054634;28;20049;-65
2023/01/25 08:06:05;;;;;;;0.63;0.47;;;;;;;;;;5062370;28;20094;-66
2023/01/25 08:08:34;;;;;;;1.38;0.82;;;;;;;;;;5054135;28;20044;-68
2023/01/25 08:11:08;;;;;;;1.00;1.00;;;;;;;;;;5056465;28;20073;-66
2023/01/25 08:13:36;;;;;;;0.90;0.90;;;;;;;;;;5053802;28;20052;-66
2023/01/25 08:16:05;;;;;;;2.53;0.40;;;;;;;;;;5066638;28;20052;-65
2023/01/25 08:18:33;;;;;;;1.35;1.23;;;;;;;;;;5056653;28;20055;-65
2023/01/25 08:21:04;;;;;;;1.05;1.05;;;;;;;;;;5056987;28;20048;-65
2023/01/25 08:23:32;;;;;;;3.10;1.23;;;;;;;;;;5056458;28;20500;-66
2023/01/25 08:26:03;;;;;;;1.70;1.35;;;;;;;;;;5063202;28;20492;-66
2023/01/25 08:28:31;;;;;;;0.32;0.32;;;;;;;;;;5058309;28;20128;-66
2023/01/25 08:31:10;;;;;;;1.52;1.17;;;;;;;;;;5050723;28;20060;-65
2023/01/25 08:33:39;;;;;;;0.43;0.43;;;;;;;;;;5051742;28;20055;-66
2023/01/25 08:36:08;;;;;;;2.75;0.75;;;;;;;;;;5048596;28;20076;-65
2023/01/25 08:38:36;;;;;;;1.20;1.13;;;;;;;;;;5050733;28;20076;-65
2023/01/25 08:41:07;;;;;;;1.27;1.27;;;;;;;;;;5050225;28;20381;-66
2023/01/25 08:43:35;;;;;;;0.45;0.45;;;;;;;;;;5051039;28;20517;-69
2023/01/25 08:46:04;;;;;;;0.38;0.38;;;;;;;;;;5047678;28;20045;-66
2023/01/25 08:48:32;;;;;;;0.70;0.70;;;;;;;;;;5040850;28;20055;-65
2023/01/25 08:51:01;;;;;;;0.50;0.50;;;;;;;;;;5047966;28;20080;-66
2023/01/25 08:53:30;;;;;;;0.40;0.40;;;;;;;;;;5044944;28;20049;-68
2023/01/25 08:56:03;;;;;;;0.30;0.30;;;;;;;;;;5045790;28;20697;-64
2023/01/25 08:58:33;;;;;;;1.65;0.45;;;;;;;;;;5039149;28;20053;-69
2023/01/25 09:01:03;;;;;;;0.73;0.50;;;;;;;;;;5024683;28;20508;-68
2023/01/25 09:03:31;;;;;;;0.28;0.28;;;;;;;;;;5028376;28;20112;-65
2023/01/25 09:06:00;;;;;;;0.65;0.65;;;;;;;;;;5026124;28;20064;-69
2023/01/25 09:08:28;;;;;;;0.98;0.32;;;;;;;;;;5029537;28;20049;-69
2023/01/25 09:11:01;;;;;;;0.85;0.63;;;;;;;;;;5026439;28;20047;-66
2023/01/25 09:13:29;;;;;;;0.57;0.57;;;;;;;;;;5029141;28;20044;-67
2023/01/25 09:16:03;;;;;;;1.13;1.13;;;;;;;;;;5027612;28;20463;-65
2023/01/25 09:18:31;;;;;;;0.50;0.50;;;;;;;;;;5028289;28;20056;-68
2023/01/25 09:21:01;;;;;;;0.20;0.20;;;;;;;;;;5029616;28;20129;-66
2023/01/25 09:23:29;;;;;;;0.32;0.32;;;;;;;;;;5027664;28;20111;-66
2023/01/25 09:26:00;;;;;;;3.83;2.05;;;;;;;;;;5034280;28;20103;-68
2023/01/25 09:28:29;;;;;;;0.50;0.50;;;;;;;;;;5028354;28;20473;-69
2023/01/25 09:30:58;;;;;;;1.27;0.60;;;;;;;;;;5023380;28;20054;-66
2023/01/25 09:33:48;;;;;;;0.20;0.20;;;;;;;;;;5039426;28;20053;-69
2023/01/25 09:36:16;;;;;;;1.10;0.80;;;;;;;;;;5028999;28;20073;-68
2023/01/25 09:38:45;;;;;;;1.65;0.88;;;;;;;;;;5046910;28;20044;-68
2023/01/25 09:41:19;;;;;;;0.65;0.65;;;;;;;;;;5057870;28;20041;-68
2023/01/25 09:43:47;;;;;;;;;;;;;;;;;;5055676;28;20064;-71
2023/01/25 09:46:23;;;;;;;1.27;1.15;;;;;;;;;;5060207;28;19958;-66
2023/01/25 09:48:56;;;;;;;2.42;0.55;;;;;;;;;;5057416;28;20524;-66
2023/01/25 09:51:45;;;;;;;0.63;0.63;;;;;;;;;;5057190;28;20131;-66
2023/01/25 09:54:14;;;;;;;1.13;0.88;;;;;;;;;;5049825;28;20051;-66
2023/01/25 09:56:44;;;;;;;0.55;0.55;;;;;;;;;;5040286;28;20053;-67
2023/01/25 09:59:16;;;;;;;0.38;0.38;;;;;;;;;;5045051;28;20041;-66
2023/01/25 10:01:47;;;;;;;1.23;1.08;;;;;;;;;;5047001;28;20143;-65
2023/01/25 10:04:19;;;;;;;1.58;1.15;;;;;;;;;;5045118;28;20048;-66
2023/01/25 10:06:51;;;;;;;0.77;0.73;;;;;;;;;;5035620;28;20045;-67
2023/01/25 10:09:34;;;;;;;0.73;0.73;;;;;;;;;;5042149;28;20116;-70
2023/01/25 10:12:06;;;;;;;1.20;0.70;;;;;;;;;;5055301;28;20049;-66
2023/01/25 10:14:34;;;;;;;0.57;0.57;;;;;;;;;;5055457;28;20045;-67
2023/01/25 10:17:07;;;;;;;1.13;0.98;;;;;;;;;;5054481;28;20052;-70
2023/01/25 10:19:44;;;;;;;0.35;0.30;;;;;;;;;;5052130;28;20659;-67
2023/01/25 10:22:15;;;;;;;1.13;1.08;;;;;;;;;;5053351;28;20045;-67
2023/01/25 10:25:05;;;;;;;0.65;0.65;;;;;;;;;;5060252;28;20554;-67
2023/01/25 10:27:38;;;;;;;0.57;0.57;;;;;;;;;;5053909;28;20371;-67
2023/01/25 10:30:23;;;;;;;0.77;0.75;;;;;;;;;;5042930;28;20584;-68
2023/01/25 10:32:52;;;;;;;0.55;0.55;;;;;;;;;;5050056;28;20497;-66
2023/01/25 10:35:27;;;;;;;2.42;1.35;;;;;;;;;;5059654;28;20088;-68
2023/01/25 10:38:05;;;;;;;1.27;1.08;;;;;;;;;;5045732;28;20131;-68
2023/01/25 10:40:39;;;;;;;1.00;0.90;;;;;;;;;;5048125;28;20052;-66
2023/01/25 10:43:12;;;;;;;2.70;0.80;;;;;;;;;;5054670;28;20059;-68
2023/01/25 10:45:41;;;;;;;0.77;0.68;;;;;;;;;;5053705;28;20063;-70
2023/01/25 10:48:12;;;;;;;2.40;1.98;;;;;;;;;;5050276;28;20045;-66
2023/01/25 10:50:59;;;;;;;1.65;1.05;;;;;;;;;;5044304;28;20040;-67
2023/01/25 10:53:31;;;;;;;1.20;1.20;;;;;;;;;;5037588;28;20377;-66
2023/01/25 10:56:05;;;;;;;1.30;0.77;;;;;;;;;;5047417;28;20309;-69
2023/01/25 10:58:35;;;;;;;1.65;1.05;;;;;;;;;;5054146;28;20417;-69
2023/01/25 11:01:05;;;;;;;0.75;0.75;;;;;;;;;;5044473;28;20057;-68
2023/01/25 11:03:36;;;;;;;0.57;0.57;;;;;;;;;;5045244;28;20127;-68
2023/01/25 11:06:05;;;;;;;1.40;1.27;;;;;;;;;;5054130;28;20044;-69
2023/01/25 11:08:35;;;;;;;1.35;1.23;;;;;;;;;;5050828;28;20049;-67
2023/01/25 11:11:24;;;;;;;0.70;0.63;;;;;;;;;;5041825;28;20494;-70
2023/01/25 11:13:54;;;;;;;1.30;0.57;;;;;;;;;;5049668;28;20432;-68
2023/01/25 11:16:30;;;;;;;1.35;0.95;;;;;;;;;;5027078;28;20045;-67
2023/01/25 11:19:01;;;;;;;1.13;0.77;;;;;;;;;;5044982;28;20049;-66
2023/01/25 11:21:30;;;;;;;0.73;0.68;;;;;;;;;;5032653;28;20056;-71
2023/01/25 11:24:01;;;;;;;2.05;1.95;;;;;;;;;;5036393;28;20049;-69
2023/01/25 11:26:31;;;;;;;1.17;1.13;;;;;;;;;;5038168;28;20050;-69
2023/01/25 11:29:12;;;;;;;1.95;0.63;;;;;;;;;;5048305;28;20052;-67
2023/01/25 11:31:44;;;;;;;1.30;1.17;;;;;;;;;;5056809;28;20052;-67
2023/01/25 11:34:13;;;;;;;1.20;1.10;;;;;;;;;;5061391;28;20445;-71
2023/01/25 11:36:46;;;;;;;1.27;1.20;;;;;;;;;;5053069;28;20049;-68
2023/01/25 11:39:22;;;;;;;0.85;0.85;;;;;;;;;;5057482;28;20048;-67
2023/01/25 11:41:55;;;;;;;2.28;1.92;;;;;;;;;;5050124;28;20144;-68
2023/01/25 11:44:42;;;;;;;0.30;0.30;;;;;;;;;;5046170;28;20040;-77
2023/01/25 11:47:14;;;;;;;1.50;1.17;;;;;;;;;;5052256;28;20509;-67
2023/01/25 11:49:48;;;;;;;1.08;1.00;;;;;;;;;;5038304;28;20064;-70
2023/01/25 11:52:24;;;;;;;6.70;1.15;;;;;;;;;;5051710;28;20610;-70
2023/01/25 11:54:57;;;;;;;2.13;1.52;;;;;;;;;;5056665;28;20567;-67
2023/01/25 11:57:32;;;;;;;1.23;1.20;;;;;;;;;;5055107;28;20055;-70
2023/01/25 12:00:04;;;;;;;5.18;2.78;;;;;;;;;;5056413;28;20732;-68
2023/01/25 12:02:45;;;;;;;0.70;0.63;;;;;;;;;;5050904;28;20109;-69
2023/01/25 12:05:24;;;;;;;1.30;1.10;;;;;;;;;;5054256;28;20045;-69
2023/01/25 12:08:00;;;;;;;2.05;1.33;;;;;;;;;;5044297;28;20060;-67
2023/01/25 12:10:34;;;;;;;1.52;1.42;;;;;;;;;;5039878;28;20448;-68
2023/01/25 12:13:08;;;;;;;0.40;0.40;;;;;;;;;;5042490;28;20040;-69
2023/01/25 12:15:52;;;;;;;0.38;0.38;;;;;;;;;;5046484;28;20141;-68
2023/01/25 12:18:30;;;;;;;1.42;1.33;;;;;;;;;;5043378;28;20052;-67
2023/01/25 12:21:04;;;;;;;0.73;0.70;;;;;;;;;;5044496;28;20045;-71
2023/01/25 12:23:37;;;;;;;1.90;1.80;;;;;;;;;;5047927;28;20059;-69
2023/01/25 12:26:13;;;;;;;0.50;0.50;;;;;;;;;;5047748;28;20444;-68
2023/01/25 12:28:43;;;;;;;1.88;1.20;;;;;;;;;;5054026;28;20139;-67
2023/01/25 12:31:15;;;;;;;1.15;1.05;;;;;;;;;;5042692;28;20155;-68
2023/01/25 12:33:46;;;;;;;2.42;0.95;;;;;;;;;;5053080;28;20071;-68
2023/01/25 12:36:18;;;;;;;0.55;0.55;;;;;;;;;;5048607;28;20489;-69
2023/01/25 12:38:51;;;;;;;1.55;0.90;;;;;;;;;;5045240;28;20057;-68
2023/01/25 12:41:26;;;;;;;2.20;0.80;;;;;;;;;;5050453;28;20150;-69
2023/01/25 12:43:58;;;;;;;0.82;0.82;;;;;;;;;;5047918;28;20159;-67
2023/01/25 12:46:29;;;;;;;1.70;1.60;;;;;;;;;;5058903;28;20051;-68
2023/01/25 12:49:00;;;;;;;1.65;1.27;;;;;;;;;;5047956;28;20468;-71
2023/01/25 12:51:30;;;;;;;1.42;1.13;;;;;;;;;;5053730;28;20041;-70
2023/01/25 12:53:59;;;;;;;1.98;1.88;;;;;;;;;;5057531;28;20048;-70
2023/01/25 12:56:33;;;;;;;0.50;0.45;;;;;;;;;;5047286;28;20126;-69
2023/01/25 12:59:04;;;;;;;0.63;0.63;;;;;;;;;;5047435;28;20055;-70
2023/01/25 13:01:34;;;;;;;1.98;1.88;;;;;;;;;;5049813;28;20060;-67
2023/01/25 13:04:10;;;;;;;1.60;1.48;;;;;;;;;;5049272;28;20118;-68
2023/01/25 13:06:44;;;;;;;1.75;1.52;;;;;;;;;;5051800;28;20049;-69
2023/01/25 13:09:16;;;;;;;1.27;1.17;;;;;;;;;;5058469;28;20066;-69
2023/01/25 13:11:47;;;;;;;0.47;0.47;;;;;;;;;;5052722;28;20152;-69
2023/01/25 13:14:31;;;;;;;2.25;2.05;;;;;;;;;;5053558;28;20529;-68
2023/01/25 13:17:13;;;;;;;1.88;1.17;;;;;;;;;;5049174;28;20123;-67
2023/01/25 13:19:42;;;;;;;2.53;1.17;;;;;;;;;;5044679;28;20446;-69
2023/01/25 13:22:11;;;;;;;1.65;1.27;;;;;;;;;;5047701;28;20044;-71
2023/01/25 13:25:13;;;;;;;2.65;1.50;;;;;;;;;;5048115;28;20110;-69
2023/01/25 13:27:43;;;;;;;1.02;0.52;;;;;;;;;;5008799;28;20092;-71
2023/01/25 13:30:30;;;;;;;2.78;2.08;;;;;;;;;;5005143;28;20062;-67
2023/01/25 13:33:00;;;;;;;0.88;0.88;;;;;;;;;;5031829;28;20045;-72
2023/01/25 13:35:30;;;;;;;6.93;1.00;;;;;;;;;;5049698;28;20656;-69
2023/01/25 13:38:00;;;;;;;2.50;1.83;;;;;;;;;;5048480;28;20084;-73
2023/01/25 13:40:31;;;;;;;3.22;1.33;;;;;;;;;;5059985;28;20056;-66
2023/01/25 13:43:02;;;;;;;1.73;1.63;;;;;;;;;;5044021;28;20103;-72
2023/01/25 13:45:32;;;;;;;2.88;1.75;;;;;;;;;;5061042;28;20101;-67
2023/01/25 13:48:03;;;;;;;0.85;0.85;;;;;;;;;;5062253;28;20049;-68
2023/01/25 13:50:35;;;;;;;4.78;2.08;;;;;;;;;;5050966;28;20052;-71
2023/01/25 13:53:04;;;;;;;1.33;1.33;;;;;;;;;;5056666;28;20050;-67
2023/01/25 13:55:39;;;;;;;3.63;0.95;;;;;;;;;;5052455;28;20060;-67
2023/01/25 13:58:17;;;;;;;1.35;1.05;;;;;;;;;;5042306;28;20056;-69
2023/01/25 14:00:53;;;;;;;2.80;0.75;;;;;;;;;;5046959;28;20402;-69
2023/01/25 14:03:25;;;;;;;3.58;1.42;;;;;;;;;;5055794;28;20057;-68
2023/01/25 14:05:55;;;;;;;1.55;1.02;;;;;;;;;;5046915;28;20124;-70
2023/01/25 14:08:24;;;;;;;0.93;0.93;;;;;;;;;;5049207;28;20126;-68
2023/01/25 14:10:53;;;;;;;0.52;0.50;;;;;;;;;;5045249;28;20469;-68
2023/01/25 14:13:23;;;;;;;1.10;0.88;;;;;;;;;;5052953;28;20102;-67
2023/01/25 14:15:55;;;;;;;1.50;1.00;;;;;;;;;;5042699;28;20045;-67
2023/01/25 14:18:28;;;;;;;0.90;0.82;;;;;;;;;;5052971;28;20052;-67
2023/01/25 14:21:10;;;;;;;0.52;0.52;;;;;;;;;;5041256;28;20061;-67
2023/01/25 14:23:39;;;;;;;2.45;1.77;;;;;;;;;;5043788;28;20132;-70
2023/01/25 14:26:17;;;;;;;0.60;0.60;;;;;;;;;;5044672;28;20053;-75
2023/01/25 14:28:48;;;;;;;2.88;1.23;;;;;;;;;;5032553;28;20037;-68
2023/01/25 14:31:32;;;;;;;0.65;0.65;;;;;;;;;;5055635;28;20053;-71
2023/01/25 14:34:02;;;;;;;2.20;1.00;;;;;;;;;;5063349;28;20072;-68
2023/01/25 14:36:33;;;;;;;1.17;1.08;;;;;;;;;;5051137;28;20052;-67
2023/01/25 14:39:01;;;;;;;2.83;1.38;;;;;;;;;;5035616;28;20129;-70
2023/01/25 14:41:33;;;;;;;1.15;0.98;;;;;;;;;;5037731;28;20059;-72
2023/01/25 14:44:04;;;;;;;3.08;2.80;;;;;;;;;;5035249;28;20084;-67
2023/01/25 14:46:33;;;;;;;3.70;1.02;;;;;;;;;;5032372;28;20049;-68
2023/01/25 14:49:09;;;;;;;1.73;1.40;;;;;;;;;;5044841;28;20480;-67
2023/01/25 14:51:41;;;;;;;0.75;0.75;;;;;;;;;;5059846;28;20128;-65
2023/01/25 14:54:15;;;;;;;19.17;5.10;;;;;;;;;;5063004;28;20045;-72
2023/01/25 14:56:44;;;;;;;3.65;1.23;;;;;;;;;;5058362;28;20068;-67
2023/01/25 14:59:22;;;;;;;0.88;0.88;;;;;;;;;;5055180;28;20076;-71
2023/01/25 15:01:53;;;;;;;1.25;1.05;;;;;;;;;;5052107;28;20502;-67
2023/01/25 15:04:22;;;;;;;2.67;1.52;;;;;;;;;;5050532;28;20053;-67